Time;durP1;ratioP1;P1;durP2;ratioP2;P2;SDS_P1;SDS_P2;PMS_P1;PMS_P2;Temp;Humidity;BMP_temperature;BMP_pressure;BME280_temperature;BME280_humidity;BME280_pressure;Samples;Min_cycle;Max_cycle;Signal;HPM_P1;HPM_P2
2022/02/06 00:01:12;;;;;;;5.53;3.38;;;4.60;99.90;;;;;;5017990;28;20239;-81
2022/02/06 00:03:38;;;;;;;5.53;3.80;;;4.60;99.90;;;;;;5015488;28;20211;-81
2022/02/06 00:06:06;;;;;;;4.55;2.55;;;4.60;99.90;;;;;;5015416;28;20258;-81
2022/02/06 00:08:33;;;;;;;10.85;3.80;;;4.50;99.90;;;;;;5016728;28;20622;-80
2022/02/06 00:11:00;;;;;;;5.88;3.80;;;4.50;99.90;;;;;;5016340;28;20289;-80
2022/02/06 00:13:27;;;;;;;5.05;3.03;;;;;;;;;;5015666;28;20235;-80
2022/02/06 00:15:53;;;;;;;5.38;3.90;;;4.50;99.90;;;;;;5016701;28;20243;-81
2022/02/06 00:18:21;;;;;;;8.13;3.50;;;4.50;99.90;;;;;;5017178;28;20295;-83
2022/02/06 00:20:52;;;;;;;6.70;2.88;;;4.50;99.90;;;;;;5016170;28;20684;-80
2022/02/06 00:23:21;;;;;;;3.20;2.80;;;4.60;99.90;;;;;;5017199;28;20276;-80
2022/02/06 00:25:56;;;;;;;7.75;3.63;;;4.60;99.90;;;;;;5024115;28;20627;-79
2022/02/06 00:28:35;;;;;;;5.43;3.55;;;4.60;99.90;;;;;;5025253;28;20192;-80
2022/02/06 00:31:11;;;;;;;6.82;3.15;;;4.70;99.90;;;;;;5024884;28;20247;-82
2022/02/06 00:33:47;;;;;;;4.18;2.70;;;4.90;99.90;;;;;;5028991;28;20189;-82
2022/02/06 00:39:07;;;;;;;2.88;2.10;;;4.80;99.90;;;;;;5031977;28;20211;-83
2022/02/06 00:41:35;;;;;;;6.25;2.55;;;4.90;99.90;;;;;;5029697;28;20266;-83
2022/02/06 00:44:04;;;;;;;3.42;2.88;;;4.90;99.90;;;;;;5027853;28;20230;-84
2022/02/06 00:46:31;;;;;;;3.60;3.00;;;4.90;99.90;;;;;;5023431;28;20195;-83
2022/02/06 00:49:03;;;;;;;4.95;3.20;;;5.00;99.90;;;;;;5022570;28;20634;-82
2022/02/06 00:51:38;;;;;;;6.68;3.10;;;5.00;99.90;;;;;;5024008;28;20192;-82
2022/02/06 00:54:04;;;;;;;7.60;4.60;;;5.00;99.90;;;;;;5021326;28;20273;-83
2022/02/06 00:56:31;;;;;;;6.10;2.60;;;5.00;99.90;;;;;;5021038;28;20251;-82
2022/02/06 00:58:58;;;;;;;4.70;2.70;;;5.00;99.90;;;;;;5021955;28;20205;-82
2022/02/06 01:01:24;;;;;;;3.35;3.05;;;5.10;99.90;;;;;;5022045;28;20212;-82
2022/02/06 01:03:53;;;;;;;5.43;2.30;;;5.00;99.90;;;;;;5021106;28;20255;-84
2022/02/06 01:06:21;;;;;;;4.22;2.50;;;5.10;99.90;;;;;;5025528;28;20571;-82
2022/02/06 01:08:48;;;;;;;5.32;2.28;;;;;;;;;;5022177;28;20232;-81
2022/02/06 01:11:15;;;;;;;2.80;2.50;;;5.20;99.90;;;;;;5022715;28;20345;-83
2022/02/06 01:13:53;;;;;;;7.00;3.30;;;5.30;99.90;;;;;;5020459;28;20216;-80
2022/02/06 01:16:23;;;;;;;4.28;3.10;;;5.20;99.90;;;;;;5020047;28;20223;-81
2022/02/06 01:18:55;;;;;;;7.38;2.80;;;5.30;99.90;;;;;;5019955;28;20219;-80
2022/02/06 01:21:35;;;;;;;3.40;2.72;;;5.30;99.90;;;;;;5021365;28;20260;-80
2022/02/06 01:24:06;;;;;;;2.13;1.90;;;5.30;99.90;;;;;;5020799;28;20224;-81
2022/02/06 01:26:38;;;;;;;6.53;2.47;;;5.30;99.90;;;;;;5019806;28;20193;-81
2022/02/06 01:29:13;;;;;;;7.47;2.30;;;5.30;99.90;;;;;;5019708;28;20216;-81
2022/02/06 01:31:52;;;;;;;5.78;2.47;;;5.30;99.90;;;;;;5019911;28;20199;-81
2022/02/06 01:34:23;;;;;;;2.58;2.38;;;5.40;99.90;;;;;;5020846;28;20235;-81
2022/02/06 01:37:04;;;;;;;5.43;2.10;;;5.40;99.90;;;;;;5019722;28;20204;-81
2022/02/06 01:39:47;;;;;;;4.65;2.60;;;;;;;;;;5020160;28;20192;-81
2022/02/06 01:42:23;;;;;;;5.68;2.50;;;5.40;99.90;;;;;;5019131;28;20194;-81
2022/02/06 01:45:00;;;;;;;7.35;3.58;;;5.30;99.90;;;;;;5019342;28;20572;-80
2022/02/06 02:01:20;;;;;;;4.55;2.20;;;5.40;99.90;;;;;;5028511;28;20180;-81
2022/02/06 02:03:54;;;;;;;3.40;2.88;;;5.30;99.90;;;;;;5019258;28;20591;-81
2022/02/06 02:09:25;;;;;;;5.18;2.20;;;5.30;99.90;;;;;;5018875;28;20279;-80
2022/02/06 02:12:22;;;;;;;4.63;2.47;;;5.30;99.90;;;;;;5018327;28;20188;-79
2022/02/06 02:20:57;;;;;;;3.40;1.95;;;5.30;99.90;;;;;;4974420;28;20290;-81
2022/02/06 02:29:21;;;;;;;2.78;1.70;;;5.10;99.90;;;;;;5021040;28;20188;-80
2022/02/06 02:32:22;;;;;;;5.35;2.22;;;5.20;99.90;;;;;;5023445;28;20208;-80
2022/02/06 02:43:29;;;;;;;5.30;2.83;;;5.10;99.90;;;;;;5017841;28;20183;-81
2022/02/06 02:46:06;;;;;;;3.08;2.05;;;5.00;99.90;;;;;;5017253;28;20211;-81
2022/02/06 02:48:34;;;;;;;4.97;2.42;;;5.00;99.90;;;;;;5017512;28;20184;-81
2022/02/06 02:51:05;;;;;;;4.75;1.90;;;5.00;99.90;;;;;;5017740;28;20212;-81
2022/02/06 02:53:37;;;;;;;3.17;1.88;;;5.10;99.90;;;;;;5018084;28;20243;-81
2022/02/06 02:56:15;;;;;;;2.95;1.90;;;4.90;99.90;;;;;;5022004;28;20188;-80
2022/02/06 02:58:53;;;;;;;4.50;2.95;;;5.00;99.90;;;;;;5024116;28;20189;-81
2022/02/06 03:01:30;;;;;;;3.00;2.20;;;4.90;99.90;;;;;;5026501;28;20188;-80
2022/02/06 03:03:57;;;;;;;3.42;1.98;;;4.90;99.90;;;;;;5025818;28;20306;-81
2022/02/06 03:06:23;;;;;;;4.15;2.33;;;4.90;99.90;;;;;;5024726;28;20204;-81
2022/02/06 03:08:53;;;;;;;5.85;2.50;;;4.90;99.90;;;;;;5018959;28;20633;-80
2022/02/06 03:11:20;;;;;;;3.63;2.20;;;4.90;99.90;;;;;;5017082;28;20299;-81
2022/02/06 03:13:54;;;;;;;3.92;2.13;;;4.90;99.90;;;;;;5016305;28;20236;-81
2022/02/06 03:16:24;;;;;;;4.85;1.65;;;4.60;99.90;;;;;;5023787;28;20201;-80
2022/02/06 03:18:58;;;;;;;3.42;2.08;;;4.80;99.90;;;;;;5030379;28;20185;-79
2022/02/06 03:21:27;;;;;;;2.42;2.22;;;4.80;99.90;;;;;;5022150;28;20185;-81
2022/02/06 03:23:58;;;;;;;3.45;2.03;;;4.80;99.90;;;;;;5017331;28;20234;-81
2022/02/06 03:26:27;;;;;;;3.13;2.13;;;4.80;99.90;;;;;;5018237;28;20193;-80
2022/02/06 03:28:55;;;;;;;3.42;2.30;;;5.00;99.90;;;;;;5016969;28;20201;-81
2022/02/06 03:31:22;;;;;;;4.45;2.10;;;4.80;99.90;;;;;;5021513;28;20215;-82
2022/02/06 03:33:50;;;;;;;4.22;2.10;;;4.70;99.90;;;;;;5018124;28;20236;-81
2022/02/06 03:36:17;;;;;;;5.43;2.75;;;4.80;99.90;;;;;;5017958;28;20200;-81
2022/02/06 03:38:45;;;;;;;5.20;2.50;;;4.70;99.90;;;;;;5016977;28;20648;-82
2022/02/06 03:41:14;;;;;;;2.17;1.98;;;4.70;99.90;;;;;;5017994;28;20208;-82
2022/02/06 03:43:50;;;;;;;6.35;2.33;;;4.90;99.90;;;;;;5017210;28;20282;-82
2022/02/06 03:46:23;;;;;;;3.70;2.33;;;4.70;99.90;;;;;;5017152;28;20235;-81
2022/02/06 03:48:53;;;;;;;3.67;2.10;;;4.70;99.90;;;;;;5016851;28;20204;-81
2022/02/06 03:51:22;;;;;;;3.03;2.83;;;4.70;99.90;;;;;;5016896;28;20215;-81
2022/02/06 03:53:52;;;;;;;5.78;2.83;;;4.70;99.90;;;;;;5016409;28;20224;-81
2022/02/06 03:56:21;;;;;;;3.50;3.20;;;4.40;99.90;;;;;;5016760;28;20667;-81
2022/02/06 03:58:48;;;;;;;4.65;2.60;;;4.70;99.90;;;;;;5016904;28;20318;-81
2022/02/06 04:01:15;;;;;;;4.15;2.30;;;4.70;99.90;;;;;;5016500;28;20199;-80
2022/02/06 04:03:41;;;;;;;6.05;2.70;;;4.80;99.90;;;;;;5016738;28;20274;-80
2022/02/06 04:06:08;;;;;;;5.28;3.10;;;4.60;99.90;;;;;;5016221;28;20619;-81
2022/02/06 04:08:37;;;;;;;6.00;3.08;;;4.60;99.90;;;;;;5016180;28;20248;-80
2022/02/06 04:11:07;;;;;;;7.75;3.20;;;4.60;99.90;;;;;;5016687;28;20212;-80
2022/02/06 04:13:40;;;;;;;4.72;2.58;;;4.50;99.90;;;;;;5016186;28;20192;-80
2022/02/06 04:16:13;;;;;;;4.47;2.67;;;4.70;99.90;;;;;;5026573;28;20235;-79
2022/02/06 04:18:49;;;;;;;4.00;2.72;;;4.70;99.90;;;;;;5016917;28;20381;-80
2022/02/06 04:21:16;;;;;;;6.32;2.95;;;4.70;99.90;;;;;;5016811;28;20194;-81
2022/02/06 04:23:43;;;;;;;7.90;2.72;;;5.10;99.90;;;;;;5018182;28;20246;-81
2022/02/06 04:26:09;;;;;;;8.73;3.10;;;4.70;99.90;;;;;;5020630;28;20234;-81
2022/02/06 04:28:37;;;;;;;5.57;3.50;;;4.70;99.90;;;;;;5021027;28;20211;-81
2022/02/06 04:31:04;;;;;;;3.00;2.45;;;4.70;99.90;;;;;;5020222;28;20204;-81
2022/02/06 04:33:31;;;;;;;6.20;3.20;;;4.90;99.90;;;;;;5019870;28;20218;-81
2022/02/06 04:41:34;;;;;;;3.78;2.38;;;4.90;99.90;;;;;;4773646;26;20237;-87
2022/02/06 05:15:46;;;;;;;6.38;2.92;;;;;;;;;;5047455;28;20287;-88
2022/02/06 05:18:38;;;;;;;11.60;2.70;;;5.00;99.90;;;;;;5052501;28;20226;-88
2022/02/06 05:24:25;;;;;;;7.00;3.78;;;5.00;99.90;;;;;;5052602;28;20248;-87
2022/02/06 05:27:09;;;;;;;12.18;5.47;;;5.00;99.90;;;;;;5061068;28;20182;-88
2022/02/06 05:29:44;;;;;;;7.63;2.80;;;;;;;;;;5059868;28;20202;-90
2022/02/06 05:32:18;;;;;;;9.43;3.90;;;;;;;;;;5059715;28;20183;-88
2022/02/06 05:34:47;;;;;;;6.95;2.47;;;5.00;99.90;;;;;;5059324;28;20203;-89
2022/02/06 05:37:16;;;;;;;7.07;4.20;;;5.00;99.90;;;;;;5045868;28;20707;-90
2022/02/06 05:39:43;;;;;;;3.63;2.80;;;4.80;99.90;;;;;;5044010;28;20303;-88
2022/02/06 05:42:11;;;;;;;5.25;4.40;;;;;;;;;;5044230;28;20198;-88
2022/02/06 05:44:42;;;;;;;3.17;2.50;;;;;;;;;;5046036;28;20207;-89
2022/02/06 05:47:08;;;;;;;4.68;3.05;;;5.00;99.90;;;;;;5055577;28;20176;-88
2022/02/06 05:49:39;;;;;;;3.70;2.55;;;4.90;99.90;;;;;;5056843;28;20204;-88
2022/02/06 05:52:08;;;;;;;3.22;2.92;;;6.90;99.90;;;;;;5049900;28;20214;-87
2022/02/06 05:54:36;;;;;;;5.55;2.83;;;5.50;99.90;;;;;;5044616;28;20223;-89
2022/02/06 05:57:09;;;;;;;4.55;3.13;;;5.20;99.90;;;;;;5044030;28;20204;-88
2022/02/06 05:59:39;;;;;;;6.53;4.80;;;;;;;;;;5044028;28;20208;-88
2022/02/06 06:02:11;;;;;;;2.72;2.53;;;5.00;99.90;;;;;;5053618;28;20200;-89
2022/02/06 06:04:39;;;;;;;2.90;2.70;;;;;;;;;;5046560;28;20319;-90
2022/02/06 06:07:10;;;;;;;4.63;2.70;;;4.90;99.90;;;;;;5045929;28;20202;-89
2022/02/06 06:09:37;;;;;;;3.35;2.15;;;;;;;;;;5045136;28;20693;-89
2022/02/06 06:12:05;;;;;;;5.60;3.40;;;5.00;99.90;;;;;;5044293;28;20207;-88
2022/02/06 06:14:39;;;;;;;5.40;2.63;;;5.00;99.90;;;;;;5054997;28;20230;-88
2022/02/06 06:17:08;;;;;;;3.05;2.67;;;;;;;;;;5052073;28;20195;-88
2022/02/06 06:19:42;;;;;;;3.13;2.33;;;5.00;99.90;;;;;;5044051;28;20224;-89
2022/02/06 06:22:13;;;;;;;2.45;2.25;;;5.00;99.90;;;;;;5045356;28;20184;-89
2022/02/06 06:24:43;;;;;;;7.18;2.90;;;;;;;;;;5043361;28;20227;-90
2022/02/06 06:27:11;;;;;;;5.05;2.60;;;5.00;99.90;;;;;;5044503;28;20211;-89
2022/02/06 06:29:39;;;;;;;4.50;3.00;;;;;;;;;;5044366;28;20658;-88
2022/02/06 06:32:09;;;;;;;3.38;2.38;;;5.00;99.90;;;;;;5044542;28;20430;-87
2022/02/06 06:34:36;;;;;;;4.45;3.25;;;;;;;;;;5044841;28;20242;-88
2022/02/06 06:37:05;;;;;;;4.45;2.88;;;4.90;99.90;;;;;;5042778;28;20211;-89
2022/02/06 06:39:38;;;;;;;5.43;2.22;;;5.00;99.90;;;;;;5052845;28;20464;-88
2022/02/06 06:42:06;;;;;;;3.58;2.53;;;4.90;99.90;;;;;;5058529;28;20219;-89
2022/02/06 06:44:33;;;;;;;4.03;2.70;;;3.50;99.90;;;;;;5055380;28;20224;-88
2022/02/06 06:47:00;;;;;;;6.88;3.20;;;;;;;;;;5050532;28;20204;-88
2022/02/06 06:49:27;;;;;;;4.32;3.90;;;;;;;;;;5048370;28;20210;-88
2022/02/06 06:51:55;;;;;;;4.25;2.67;;;;;;;;;;5043631;28;20349;-89
2022/02/06 06:54:23;;;;;;;7.30;2.50;;;;;;;;;;5043839;28;20687;-89
2022/02/06 06:56:57;;;;;;;5.30;2.72;;;5.00;99.90;;;;;;5045089;28;20670;-89
2022/02/06 06:59:42;;;;;;;3.40;2.38;;;;;;;;;;5044420;28;20230;-89
2022/02/06 07:02:18;;;;;;;3.80;2.13;;;5.00;99.90;;;;;;5042874;28;20199;-89
2022/02/06 07:04:47;;;;;;;2.92;2.72;;;5.20;99.90;;;;;;5043909;28;20226;-88
2022/02/06 07:07:17;;;;;;;3.10;2.40;;;5.00;99.90;;;;;;5041823;28;20204;-89
2022/02/06 07:09:45;;;;;;;3.40;2.80;;;5.20;99.90;;;;;;5050778;28;20200;-89
2022/02/06 07:12:13;;;;;;;2.40;2.20;;;5.10;99.90;;;;;;5052108;28;20294;-89
2022/02/06 07:14:41;;;;;;;2.88;2.10;;;;;;;;;;5057926;28;20203;-88
2022/02/06 07:17:08;;;;;;;2.40;2.20;;;;;;;;;;5058842;28;20210;-88
2022/02/06 07:19:38;;;;;;;2.75;2.00;;;5.10;99.90;;;;;;5057825;28;20215;-88
2022/02/06 07:22:07;;;;;;;2.50;2.28;;;5.00;99.90;;;;;;5055596;28;20175;-88
2022/02/06 07:24:36;;;;;;;3.47;2.13;;;;;;;;;;5058900;28;20200;-87
2022/02/06 07:27:16;;;;;;;3.13;2.10;;;5.20;99.90;;;;;;5058900;28;20200;-87
2022/02/06 07:29:44;;;;;;;3.47;1.98;;;5.20;99.90;;;;;;5058667;28;20191;-88
2022/02/06 07:32:11;;;;;;;7.13;1.85;;;5.30;99.90;;;;;;5058434;28;20187;-88
2022/02/06 07:34:41;;;;;;;2.25;2.03;;;5.30;99.90;;;;;;5058109;28;20234;-89
2022/02/06 07:37:09;;;;;;;2.65;2.15;;;;;;;;;;5058632;28;20187;-89
2022/02/06 07:39:40;;;;;;;3.13;2.10;;;5.30;99.90;;;;;;5058055;28;20297;-89
2022/02/06 07:42:09;;;;;;;4.55;2.10;;;5.10;99.90;;;;;;5057351;28;20203;-88
2022/02/06 07:44:37;;;;;;;1.42;1.33;;;;;;;;;;5057254;28;20204;-89
2022/02/06 07:47:14;;;;;;;3.50;1.90;;;5.30;99.90;;;;;;5058099;28;20195;-89
2022/02/06 07:49:43;;;;;;;3.85;1.70;;;;;;;;;;5058300;28;20176;-88
2022/02/06 07:52:12;;;;;;;2.10;1.90;;;5.40;99.90;;;;;;5056011;28;20207;-90
2022/02/06 07:54:39;;;;;;;4.95;1.67;;;5.40;99.90;;;;;;5056298;28;20234;-89
2022/02/06 07:57:06;;;;;;;3.25;2.38;;;5.40;99.90;;;;;;5054368;28;20191;-89
2022/02/06 07:59:40;;;;;;;3.65;1.60;;;5.50;99.90;;;;;;5054790;28;20274;-91
2022/02/06 08:02:17;;;;;;;3.38;1.75;;;5.60;99.90;;;;;;5055184;28;20218;-89
2022/02/06 08:04:48;;;;;;;2.40;1.88;;;;;;;;;;5055892;28;20216;-89
2022/02/06 08:07:18;;;;;;;7.57;2.33;;;;;;;;;;5058075;28;20207;-88
2022/02/06 08:09:55;;;;;;;2.15;1.52;;;5.70;99.90;;;;;;5056732;28;20206;-89
2022/02/06 08:12:28;;;;;;;2.95;1.58;;;5.70;99.90;;;;;;5058475;28;20172;-89
2022/02/06 08:15:00;;;;;;;1.88;1.75;;;;;;;;;;5058487;28;20216;-88
2022/02/06 08:17:49;;;;;;;1.50;1.40;;;5.80;99.90;;;;;;5058393;28;20175;-89
2022/02/06 08:20:18;;;;;;;3.38;1.38;;;5.70;99.90;;;;;;5057888;28;20218;-91
2022/02/06 08:22:56;;;;;;;2.72;1.73;;;5.80;99.90;;;;;;5055316;28;20192;-90
2022/02/06 08:25:27;;;;;;;2.15;1.90;;;;;;;;;;5052814;28;20230;-89
2022/02/06 08:27:55;;;;;;;1.70;1.60;;;;;;;;;;5057999;28;20242;-89
2022/02/06 08:30:25;;;;;;;3.45;2.10;;;;;;;;;;5053526;28;20207;-91
2022/02/06 08:33:24;;;;;;;2.08;1.33;;;5.80;99.90;;;;;;5050153;28;20195;-90
2022/02/06 08:35:51;;;;;;;10.90;2.03;;;;;;;;;;5051425;28;20224;-90
2022/02/06 08:38:21;;;;;;;2.35;1.95;;;;;;;;;;5055786;28;20219;-90
2022/02/06 08:40:52;;;;;;;6.22;2.05;;;;;;;;;;5057534;28;20192;-88
2022/02/06 08:43:29;;;;;;;2.50;2.00;;;7.60;99.90;;;;;;5058072;28;20255;-88
2022/02/06 08:46:02;;;;;;;11.00;2.53;;;5.90;99.90;;;;;;5057518;28;20204;-89
2022/02/06 08:48:36;;;;;;;1.40;1.20;;;6.00;99.90;;;;;;5055678;28;20481;-89
2022/02/06 08:51:14;;;;;;;2.40;2.00;;;6.00;99.90;;;;;;5057707;28;20441;-88
2022/02/06 08:53:42;;;;;;;2.20;1.23;;;;;;;;;;5057012;28;20456;-87
2022/02/06 08:56:09;;;;;;;2.95;1.52;;;;;;;;;;5057810;28;20271;-87
2022/02/06 08:58:36;;;;;;;2.35;1.75;;;;;;;;;;5057672;28;20203;-88
2022/02/06 09:01:22;;;;;;;3.42;2.15;;;6.10;99.90;;;;;;5057624;28;20222;-88
2022/02/06 09:03:57;;;;;;;2.03;1.80;;;6.10;99.90;;;;;;5057933;28;20202;-87
2022/02/06 09:06:24;;;;;;;3.13;2.00;;;;;;;;;;5057532;28;20437;-89
2022/02/06 09:09:00;;;;;;;2.05;1.60;;;6.30;99.90;;;;;;5056754;28;20449;-88
2022/02/06 09:11:32;;;;;;;2.88;1.60;;;6.30;99.90;;;;;;5061211;28;20211;-89
2022/02/06 09:14:13;;;;;;;3.00;1.60;;;6.70;99.90;;;;;;5060650;28;20434;-88
2022/02/06 09:19:30;;;;;;;1.60;1.50;;;6.20;99.90;;;;;;5059025;28;20291;-89
2022/02/06 09:22:05;;;;;;;1.95;1.77;;;;;;;;;;5061002;28;20258;-88
2022/02/06 09:24:38;;;;;;;1.95;1.70;;;6.20;99.90;;;;;;5060772;28;20231;-88
2022/02/06 09:27:07;;;;;;;1.98;1.88;;;6.20;99.90;;;;;;5061396;28;20235;-88
2022/02/06 09:30:02;;;;;;;1.83;1.73;;;6.20;99.90;;;;;;5060812;28;20188;-88
2022/02/06 10:36:40;;;;;;;1.30;1.20;;;7.20;99.90;;;;;;6067973;22;20197;-82
2022/02/06 10:39:09;;;;;;;6.15;2.38;;;7.30;99.90;;;;;;5043261;28;20204;-81
2022/02/06 10:41:43;;;;;;;5.45;2.85;;;7.30;99.90;;;;;;5042847;28;20208;-81
2022/02/06 10:44:10;;;;;;;2.92;1.60;;;7.40;99.90;;;;;;5050923;28;20215;-81
2022/02/06 10:46:45;;;;;;;2.85;1.25;;;7.50;99.90;;;;;;5044345;28;20204;-82
2022/02/06 10:49:14;;;;;;;2.40;2.20;;;7.40;99.90;;;;;;5040554;28;20210;-83
2022/02/06 10:51:43;;;;;;;3.40;2.30;;;7.30;99.90;;;;;;5041465;28;20100;-82
2022/02/06 10:54:13;;;;;;;2.17;1.87;;;7.40;99.90;;;;;;5039758;28;20258;-82
2022/02/06 10:56:59;;;;;;;2.60;1.63;;;7.60;99.90;;;;;;5039912;28;20501;-81
2022/02/06 10:59:25;;;;;;;1.80;1.70;;;7.50;99.90;;;;;;5039837;28;21032;-82
2022/02/06 11:01:53;;;;;;;2.10;1.40;;;7.50;99.90;;;;;;5039856;28;20512;-82
2022/02/06 11:04:29;;;;;;;2.08;1.80;;;7.50;99.90;;;;;;5039780;28;20200;-82
2022/02/06 11:07:12;;;;;;;5.40;1.73;;;7.50;99.90;;;;;;5040296;28;20300;-81
2022/02/06 11:09:39;;;;;;;1.93;1.60;;;7.70;99.90;;;;;;5039764;28;20184;-82
2022/02/06 11:12:11;;;;;;;1.50;1.40;;;7.60;99.90;;;;;;5040530;28;20538;-82
2022/02/06 11:14:45;;;;;;;3.80;1.70;;;7.80;99.90;;;;;;5039813;28;20431;-82
2022/02/06 11:17:16;;;;;;;2.10;1.90;;;7.80;99.90;;;;;;5039085;28;20219;-83
2022/02/06 11:19:58;;;;;;;1.60;1.50;;;7.80;99.90;;;;;;5044838;28;20474;-81
2022/02/06 11:22:26;;;;;;;1.77;1.60;;;7.80;99.90;;;;;;5043476;28;20911;-81
2022/02/06 11:24:53;;;;;;;2.85;1.70;;;8.00;99.90;;;;;;5040812;28;20473;-81
2022/02/06 11:27:23;;;;;;;2.43;2.10;;;7.90;99.90;;;;;;5041262;28;20224;-82
2022/02/06 11:29:50;;;;;;;1.83;1.70;;;7.90;99.90;;;;;;5041699;28;20457;-81
2022/02/06 11:32:17;;;;;;;3.85;1.90;;;7.80;99.90;;;;;;5045476;28;20457;-82
2022/02/06 11:34:44;;;;;;;2.22;1.80;;;7.90;99.90;;;;;;5045566;28;20207;-81
2022/02/06 11:46:13;;;;;;;1.75;1.65;;;8.20;99.90;;;;;;5035621;28;20647;-82
2022/02/06 11:48:41;;;;;;;1.40;1.10;;;7.90;99.90;;;;;;5039623;28;20223;-82
2022/02/06 11:51:07;;;;;;;1.67;1.13;;;7.80;99.90;;;;;;5038925;28;20211;-82
2022/02/06 11:53:38;;;;;;;4.97;2.50;;;7.80;99.90;;;;;;5039625;28;20520;-82
2022/02/06 11:56:22;;;;;;;2.85;1.80;;;7.90;99.90;;;;;;5040531;28;20481;-81
2022/02/06 11:58:51;;;;;;;0.90;0.90;;;7.90;99.90;;;;;;5038241;28;20184;-80
2022/02/06 12:01:25;;;;;;;1.30;1.20;;;7.90;99.90;;;;;;5039355;28;20446;-83
2022/02/06 12:04:06;;;;;;;1.60;1.00;;;7.80;99.90;;;;;;5037915;28;20477;-83
2022/02/06 12:06:51;;;;;;;1.90;1.13;;;7.70;99.90;;;;;;5041270;28;20442;-83
2022/02/06 12:09:20;;;;;;;2.20;1.20;;;7.80;99.90;;;;;;5039961;28;20433;-82
2022/02/06 12:12:23;;;;;;;1.20;1.10;;;7.90;99.90;;;;;;5042724;28;20537;-83
2022/02/06 12:15:19;;;;;;;1.65;1.55;;;7.80;99.90;;;;;;5040222;28;20485;-82
2022/02/06 12:18:08;;;;;;;1.65;1.40;;;8.00;99.90;;;;;;5039233;28;20250;-83
2022/02/06 12:20:47;;;;;;;1.23;1.13;;;7.80;99.90;;;;;;5038861;28;20578;-83
2022/02/06 12:23:40;;;;;;;1.33;1.23;;;7.80;99.90;;;;;;5041766;28;20424;-83
2022/02/06 12:26:46;;;;;;;2.20;1.40;;;7.70;99.90;;;;;;5040335;28;20574;-83
2022/02/06 12:29:19;;;;;;;1.80;1.40;;;7.70;99.90;;;;;;5047728;28;20188;-79
2022/02/06 12:31:56;;;;;;;2.47;2.27;;;7.70;99.90;;;;;;5048055;28;20254;-80
2022/02/06 12:37:28;;;;;;;1.40;1.30;;;7.70;99.90;;;;;;5020642;28;20219;-82
2022/02/06 12:39:57;;;;;;;1.25;1.15;;;7.70;99.90;;;;;;5046114;28;20282;-82
2022/02/06 12:42:34;;;;;;;2.88;2.63;;;7.60;99.90;;;;;;5047209;28;20207;-81
2022/02/06 12:45:06;;;;;;;2.00;1.50;;;7.70;99.90;;;;;;5048242;28;20218;-81
2022/02/06 12:47:33;;;;;;;1.58;1.48;;;7.60;99.90;;;;;;5051194;28;20227;-81
2022/02/06 12:49:59;;;;;;;2.10;1.30;;;7.60;99.90;;;;;;5054867;28;20230;-81
2022/02/06 12:52:26;;;;;;;1.65;1.05;;;7.70;99.90;;;;;;5056656;28;20451;-80
2022/02/06 12:54:53;;;;;;;1.55;1.45;;;7.70;99.90;;;;;;5059109;28;20257;-80
2022/02/06 12:57:20;;;;;;;2.50;0.98;;;7.70;99.90;;;;;;5054870;28;20437;-81
2022/02/06 12:59:49;;;;;;;3.00;2.73;;;7.70;99.90;;;;;;5052995;28;20223;-80
2022/02/06 13:02:23;;;;;;;3.03;2.20;;;7.80;99.90;;;;;;5052496;28;20455;-80
2022/02/06 13:05:00;;;;;;;3.70;2.50;;;7.80;99.90;;;;;;5054330;28;20188;-81
2022/02/06 13:07:30;;;;;;;5.47;3.80;;;8.00;99.90;;;;;;5054204;28;20461;-80
2022/02/06 13:10:02;;;;;;;6.67;2.80;;;7.90;99.90;;;;;;5053468;28;20449;-80
2022/02/06 13:12:34;;;;;;;3.77;2.80;;;7.80;99.90;;;;;;5053852;28;20469;-81
2022/02/06 13:15:24;;;;;;;2.58;1.73;;;7.80;99.90;;;;;;5048843;28;20444;-81
2022/02/06 13:18:10;;;;;;;2.05;1.75;;;7.80;99.90;;;;;;5047888;28;20235;-83
2022/02/06 13:20:48;;;;;;;3.13;1.90;;;7.90;99.90;;;;;;5045489;28;20211;-81
2022/02/06 13:23:23;;;;;;;2.60;1.47;;;7.80;99.90;;;;;;5047767;28;20451;-81
2022/02/06 13:26:00;;;;;;;2.87;1.93;;;7.80;99.90;;;;;;5046323;28;20552;-80
2022/02/06 13:28:44;;;;;;;2.47;2.00;;;7.80;99.90;;;;;;5046961;28;20515;-80
2022/02/06 13:31:35;;;;;;;2.47;1.35;;;7.80;99.90;;;;;;5047689;28;20405;-82
2022/02/06 13:34:16;;;;;;;1.23;1.10;;;7.90;99.90;;;;;;5045480;28;20187;-81
2022/02/06 13:36:53;;;;;;;2.55;1.27;;;7.90;99.90;;;;;;5043842;28;20215;-81
2022/02/06 13:39:30;;;;;;;1.40;1.30;;;7.80;99.90;;;;;;5044352;28;20620;-81
2022/02/06 13:41:57;;;;;;;3.15;2.15;;;7.80;99.90;;;;;;5046381;28;20409;-78
2022/02/06 13:44:25;;;;;;;1.48;1.10;;;7.80;99.90;;;;;;5049128;28;20191;-78
2022/02/06 13:46:54;;;;;;;1.33;1.02;;;7.50;1.00;;;;;;5055830;28;20441;-79
2022/02/06 13:49:35;;;;;;;1.73;1.38;;;7.70;1.00;;;;;;5054502;28;20215;-79
2022/02/06 13:52:06;;;;;;;3.80;1.42;;;7.70;1.00;;;;;;5044639;28;20219;-80
2022/02/06 13:54:36;;;;;;;1.20;1.10;;;7.60;1.00;;;;;;5043107;28;20261;-79
2022/02/06 13:57:05;;;;;;;1.48;1.10;;;7.60;1.00;;;;;;5043176;28;20230;-80
2022/02/06 13:59:36;;;;;;;1.92;1.23;;;7.50;1.00;;;;;;5044151;28;20299;-82
2022/02/06 14:02:07;;;;;;;1.33;1.23;;;7.50;34.70;;;;;;5046923;28;20242;-81
2022/02/06 14:04:38;;;;;;;1.25;1.00;;;7.40;18.00;;;;;;5048177;28;20251;-81
2022/02/06 14:07:08;;;;;;;1.00;0.90;;;7.40;13.50;;;;;;5051800;28;20286;-82
2022/02/06 14:09:45;;;;;;;1.63;1.52;;;7.40;87.70;;;;;;5055082;28;20212;-80
2022/02/06 14:12:16;;;;;;;2.38;1.65;;;7.30;99.90;;;;;;5052820;28;20191;-78
2022/02/06 14:14:49;;;;;;;1.50;1.40;;;7.30;99.90;;;;;;5044756;28;20534;-80
2022/02/06 14:17:17;;;;;;;1.40;1.30;;;7.20;99.90;;;;;;5042642;28;20740;-80
2022/02/06 14:19:47;;;;;;;2.78;1.80;;;7.20;99.90;;;;;;5044141;28;20219;-81
2022/02/06 14:22:29;;;;;;;1.33;1.23;;;7.10;99.90;;;;;;5044811;28;20184;-80
2022/02/06 14:24:58;;;;;;;2.00;1.30;;;7.10;99.90;;;;;;5043761;28;20191;-82
2022/02/06 14:27:33;;;;;;;1.50;0.93;;;7.10;99.90;;;;;;5047351;28;20315;-82
2022/02/06 14:30:04;;;;;;;1.02;0.93;;;7.00;99.90;;;;;;5049655;28;20184;-82
2022/02/06 14:32:31;;;;;;;1.90;1.65;;;6.90;99.90;;;;;;5049403;28;20196;-81
2022/02/06 14:35:01;;;;;;;2.65;2.05;;;6.90;99.90;;;;;;5045808;28;20203;-83
2022/02/06 14:37:42;;;;;;;3.03;2.10;;;6.70;99.90;;;;;;5043106;28;20315;-79
2022/02/06 14:40:17;;;;;;;3.38;2.42;;;6.70;99.90;;;;;;5042584;28;20218;-84
2022/02/06 14:42:51;;;;;;;2.65;2.45;;;6.70;99.90;;;;;;5047705;28;20214;-80
2022/02/06 14:45:18;;;;;;;2.75;2.25;;;6.70;99.90;;;;;;5047369;28;20204;-82
2022/02/06 14:47:44;;;;;;;2.35;1.75;;;6.70;99.90;;;;;;5046126;28;20227;-82
2022/02/06 14:50:14;;;;;;;2.72;2.10;;;6.60;99.90;;;;;;5045141;28;20449;-81
2022/02/06 14:52:41;;;;;;;1.63;1.48;;;6.60;99.90;;;;;;5045062;28;20622;-83
2022/02/06 14:55:08;;;;;;;1.90;1.58;;;6.50;99.90;;;;;;5044657;28;20619;-82
2022/02/06 14:57:34;;;;;;;1.45;1.35;;;6.50;99.90;;;;;;5043473;28;20254;-83
2022/02/06 15:00:01;;;;;;;1.55;1.23;;;6.50;99.90;;;;;;5041160;28;20607;-83
2022/02/06 15:02:28;;;;;;;1.50;1.40;;;6.50;99.90;;;;;;5041456;28;20253;-82
2022/02/06 15:04:54;;;;;;;2.00;1.80;;;6.40;99.90;;;;;;5042717;28;20203;-81
2022/02/06 15:07:22;;;;;;;1.73;1.58;;;6.40;99.90;;;;;;5043817;28;20227;-83
2022/02/06 15:09:49;;;;;;;5.18;1.70;;;6.40;99.90;;;;;;5044952;28;20215;-82
2022/02/06 15:12:15;;;;;;;4.00;2.70;;;6.40;99.90;;;;;;5047614;28;20200;-81
2022/02/06 15:14:42;;;;;;;5.32;3.28;;;6.30;99.90;;;;;;5045806;28;20219;-82
2022/02/06 15:17:10;;;;;;;3.08;2.78;;;6.50;99.90;;;;;;5046604;28;20230;-81
2022/02/06 15:19:37;;;;;;;8.73;3.55;;;6.30;99.90;;;;;;5047439;28;20705;-82
2022/02/06 15:22:04;;;;;;;8.65;3.35;;;6.30;99.90;;;;;;5045758;28;20329;-82
2022/02/06 15:24:34;;;;;;;2.38;2.00;;;6.10;99.90;;;;;;5044494;28;20499;-86
2022/02/06 15:27:00;;;;;;;2.97;2.55;;;6.20;99.90;;;;;;5046195;28;20224;-82
2022/02/06 15:29:29;;;;;;;2.90;2.08;;;6.30;99.90;;;;;;5044677;28;20231;-80
2022/02/06 15:31:55;;;;;;;1.73;1.63;;;6.30;99.90;;;;;;5046870;28;20253;-83
2022/02/06 15:34:22;;;;;;;2.05;1.30;;;6.20;99.90;;;;;;5044975;28;20441;-82
2022/02/06 15:36:51;;;;;;;3.55;2.70;;;6.20;99.90;;;;;;5043657;28;20231;-83
2022/02/06 15:39:22;;;;;;;4.00;3.30;;;6.20;99.90;;;;;;5041933;28;20218;-84
2022/02/06 15:41:54;;;;;;;2.03;1.83;;;6.10;99.90;;;;;;5045156;28;20212;-81
2022/02/06 15:44:21;;;;;;;1.42;1.30;;;6.10;99.90;;;;;;5045324;28;20279;-80
2022/02/06 15:46:48;;;;;;;2.55;1.75;;;6.10;99.90;;;;;;5046455;28;20230;-80
2022/02/06 15:49:15;;;;;;;9.00;2.67;;;6.20;99.90;;;;;;5053118;28;20207;-86
2022/02/06 15:51:41;;;;;;;2.15;1.90;;;6.10;99.90;;;;;;5048674;28;20226;-82
2022/02/06 15:54:08;;;;;;;1.70;1.48;;;6.10;99.90;;;;;;5044723;28;20318;-82
2022/02/06 15:56:35;;;;;;;2.30;2.10;;;6.40;99.90;;;;;;5048270;28;20203;-80
2022/02/06 15:59:03;;;;;;;1.00;1.00;;;6.20;99.90;;;;;;5044892;28;20199;-81
2022/02/06 16:01:31;;;;;;;3.03;2.05;;;6.10;99.90;;;;;;5040456;28;20223;-81
2022/02/06 16:03:58;;;;;;;2.75;1.80;;;6.00;99.90;;;;;;5040884;28;20574;-80
2022/02/06 16:06:24;;;;;;;3.38;1.98;;;6.00;99.90;;;;;;5040690;28;20200;-81
2022/02/06 16:08:51;;;;;;;2.10;1.33;;;6.10;99.90;;;;;;5040581;28;20516;-83
2022/02/06 16:11:17;;;;;;;2.20;1.80;;;6.00;99.90;;;;;;5042524;28;20215;-82
2022/02/06 16:13:44;;;;;;;1.23;1.13;;;6.10;99.90;;;;;;5049137;28;20207;-82